sensor_id;sensor_type;location;lat;lon;timestamp;pressure;altitude;pressure_sealevel;temperature;humidity
45525;BME280;31437;58.350;13.828;2022-07-23T00:00:31;99590.50;;;14.04;100.00
45525;BME280;31437;58.350;13.828;2022-07-23T00:02:56;99588.22;;;14.00;100.00
45525;BME280;31437;58.350;13.828;2022-07-23T00:05:22;99579.13;;;13.93;100.00
45525;BME280;31437;58.350;13.828;2022-07-23T00:07:47;99577.94;;;13.85;100.00
45525;BME280;31437;58.350;13.828;2022-07-23T00:10:12;99581.88;;;13.80;100.00
45525;BME280;31437;58.350;13.828;2022-07-23T00:12:38;99582.22;;;13.75;100.00
45525;BME280;31437;58.350;13.828;2022-07-23T00:15:04;99581.72;;;13.70;100.00
45525;BME280;31437;58.350;13.828;2022-07-23T00:17:30;99582.19;;;13.64;100.00
45525;BME280;31437;58.350;13.828;2022-07-23T00:19:55;99587.00;;;13.59;100.00
45525;BME280;31437;58.350;13.828;2022-07-23T00:22:20;99582.91;;;13.55;100.00
45525;BME280;31437;58.350;13.828;2022-07-23T00:24:46;99578.94;;;13.49;100.00
45525;BME280;31437;58.350;13.828;2022-07-23T00:27:11;99572.34;;;13.44;100.00
45525;BME280;31437;58.350;13.828;2022-07-23T00:29:36;99576.03;;;13.41;100.00
45525;BME280;31437;58.350;13.828;2022-07-23T00:32:01;99577.84;;;13.40;100.00
45525;BME280;31437;58.350;13.828;2022-07-23T00:34:27;99578.06;;;13.37;100.00
45525;BME280;31437;58.350;13.828;2022-07-23T00:36:52;99578.44;;;13.33;100.00
45525;BME280;31437;58.350;13.828;2022-07-23T00:39:19;99576.13;;;13.28;100.00
45525;BME280;31437;58.350;13.828;2022-07-23T00:41:44;99576.13;;;13.28;100.00
45525;BME280;31437;58.350;13.828;2022-07-23T00:44:16;99573.81;;;13.24;100.00
45525;BME280;31437;58.350;13.828;2022-07-23T00:46:52;99569.84;;;13.18;100.00
45525;BME280;31437;58.350;13.828;2022-07-23T00:49:28;99571.97;;;13.13;100.00
45525;BME280;31437;58.350;13.828;2022-07-23T00:51:54;99579.28;;;13.09;100.00
45525;BME280;31437;58.350;13.828;2022-07-23T00:54:21;99575.06;;;13.07;100.00
45525;BME280;31437;58.350;13.828;2022-07-23T00:56:47;99572.53;;;13.05;100.00
45525;BME280;31437;58.350;13.828;2022-07-23T00:59:13;99579.97;;;13.00;100.00
45525;BME280;31437;58.350;13.828;2022-07-23T01:01:39;99576.59;;;12.98;100.00
45525;BME280;31437;58.350;13.828;2022-07-23T01:04:04;99578.50;;;12.96;100.00
45525;BME280;31437;58.350;13.828;2022-07-23T01:06:30;99574.28;;;12.93;100.00
45525;BME280;31437;58.350;13.828;2022-07-23T01:08:59;99580.50;;;12.92;100.00
45525;BME280;31437;58.350;13.828;2022-07-23T01:11:24;99581.47;;;12.91;100.00
45525;BME280;31437;58.350;13.828;2022-07-23T01:13:49;99580.59;;;12.91;100.00
45525;BME280;31437;58.350;13.828;2022-07-23T01:16:15;99581.47;;;12.91;100.00
45525;BME280;31437;58.350;13.828;2022-07-23T01:18:40;99591.13;;;12.91;100.00
45525;BME280;31437;58.350;13.828;2022-07-23T01:21:05;99592.00;;;12.91;100.00
45525;BME280;31437;58.350;13.828;2022-07-23T01:23:30;99594.72;;;12.90;100.00
45525;BME280;31437;58.350;13.828;2022-07-23T01:25:56;99587.66;;;12.90;100.00
45525;BME280;31437;58.350;13.828;2022-07-23T01:28:21;99609.47;;;12.92;100.00
45525;BME280;31437;58.350;13.828;2022-07-23T01:30:47;99592.94;;;12.90;100.00
45525;BME280;31437;58.350;13.828;2022-07-23T01:33:13;99605.16;;;12.91;100.00
45525;BME280;31437;58.350;13.828;2022-07-23T01:35:38;99605.03;;;12.93;100.00
45525;BME280;31437;58.350;13.828;2022-07-23T01:38:03;99604.94;;;12.94;100.00
45525;BME280;31437;58.350;13.828;2022-07-23T01:40:29;99600.50;;;12.95;100.00
45525;BME280;31437;58.350;13.828;2022-07-23T01:42:54;99607.34;;;12.98;100.00
45525;BME280;31437;58.350;13.828;2022-07-23T01:45:20;99612.38;;;13.01;100.00
45525;BME280;31437;58.350;13.828;2022-07-23T01:47:45;99606.28;;;13.00;100.00
45525;BME280;31437;58.350;13.828;2022-07-23T01:50:11;99604.72;;;12.98;100.00
45525;BME280;31437;58.350;13.828;2022-07-23T01:52:36;99606.28;;;13.00;100.00
45525;BME280;31437;58.350;13.828;2022-07-23T01:55:01;99608.78;;;13.02;100.00
45525;BME280;31437;58.350;13.828;2022-07-23T01:57:27;99613.31;;;13.00;100.00
45525;BME280;31437;58.350;13.828;2022-07-23T01:59:52;99612.38;;;13.01;100.00
45525;BME280;31437;58.350;13.828;2022-07-23T02:02:18;99604.81;;;12.96;100.00
45525;BME280;31437;58.350;13.828;2022-07-23T02:04:43;99604.94;;;12.94;100.00
45525;BME280;31437;58.350;13.828;2022-07-23T02:07:08;99604.06;;;12.94;100.00
45525;BME280;31437;58.350;13.828;2022-07-23T02:09:33;99596.31;;;12.92;100.00
45525;BME280;31437;58.350;13.828;2022-07-23T02:11:59;99606.09;;;12.90;100.00
45525;BME280;31437;58.350;13.828;2022-07-23T02:14:25;99607.91;;;12.90;100.00
45525;BME280;31437;58.350;13.828;2022-07-23T02:16:50;99601.06;;;12.87;100.00
45525;BME280;31437;58.350;13.828;2022-07-23T02:19:16;99602.97;;;12.85;100.00
45525;BME280;31437;58.350;13.828;2022-07-23T02:21:41;99604.97;;;12.82;100.00
45525;BME280;31437;58.350;13.828;2022-07-23T02:24:06;99603.41;;;12.79;100.00
45525;BME280;31437;58.350;13.828;2022-07-23T02:26:32;99601.94;;;12.75;100.00
45525;BME280;31437;58.350;13.828;2022-07-23T02:29:01;99602.19;;;12.72;100.00
45525;BME280;31437;58.350;13.828;2022-07-23T02:31:27;99605.03;;;12.69;100.00
45525;BME280;31437;58.350;13.828;2022-07-23T02:33:52;99610.50;;;12.66;100.00
45525;BME280;31437;58.350;13.828;2022-07-23T02:36:18;99603.69;;;12.63;100.00
45525;BME280;31437;58.350;13.828;2022-07-23T02:38:43;99604.63;;;12.62;100.00
45525;BME280;31437;58.350;13.828;2022-07-23T02:41:08;99608.31;;;12.60;100.00
45525;BME280;31437;58.350;13.828;2022-07-23T02:43:33;99607.59;;;12.58;100.00
45525;BME280;31437;58.350;13.828;2022-07-23T02:45:59;99611.88;;;12.59;100.00
45525;BME280;31437;58.350;13.828;2022-07-23T02:48:25;99605.09;;;12.56;100.00
45525;BME280;31437;58.350;13.828;2022-07-23T02:50:51;99605.19;;;12.55;100.00
45525;BME280;31437;58.350;13.828;2022-07-23T02:53:17;99604.34;;;12.54;100.00
45525;BME280;31437;58.350;13.828;2022-07-23T02:55:43;99606.97;;;12.54;100.00
45525;BME280;31437;58.350;13.828;2022-07-23T02:58:08;99608.78;;;12.54;100.00
45525;BME280;31437;58.350;13.828;2022-07-23T03:00:33;99604.44;;;12.53;100.00
45525;BME280;31437;58.350;13.828;2022-07-23T03:02:58;99604.44;;;12.53;100.00
45525;BME280;31437;58.350;13.828;2022-07-23T03:05:24;99607.19;;;12.51;100.00
45525;BME280;31437;58.350;13.828;2022-07-23T03:07:49;99605.41;;;12.52;100.00
45525;BME280;31437;58.350;13.828;2022-07-23T03:10:14;99600.13;;;12.52;100.00
45525;BME280;31437;58.350;13.828;2022-07-23T03:12:39;99600.03;;;12.53;100.00
45525;BME280;31437;58.350;13.828;2022-07-23T03:15:05;99597.41;;;12.53;100.00
45525;BME280;31437;58.350;13.828;2022-07-23T03:17:30;99598.25;;;12.54;100.00
45525;BME280;31437;58.350;13.828;2022-07-23T03:19:56;99601.72;;;12.54;100.00
45525;BME280;31437;58.350;13.828;2022-07-23T03:22:21;99605.31;;;12.53;100.00
45525;BME280;31437;58.350;13.828;2022-07-23T03:24:46;99599.31;;;12.51;100.00
45525;BME280;31437;58.350;13.828;2022-07-23T03:27:21;99610.88;;;12.48;100.00
45525;BME280;31437;58.350;13.828;2022-07-23T03:29:46;99608.34;;;12.47;100.00
45525;BME280;31437;58.350;13.828;2022-07-23T03:32:12;99604.88;;;12.46;100.00
45525;BME280;31437;58.350;13.828;2022-07-23T03:34:37;99607.50;;;12.46;100.00
45525;BME280;31437;58.350;13.828;2022-07-23T03:37:03;99604.88;;;12.46;100.00
45525;BME280;31437;58.350;13.828;2022-07-23T03:39:28;99607.63;;;12.45;100.00
45525;BME280;31437;58.350;13.828;2022-07-23T03:41:53;99612.06;;;12.44;100.00
45525;BME280;31437;58.350;13.828;2022-07-23T03:44:19;99611.09;;;12.45;100.00
45525;BME280;31437;58.350;13.828;2022-07-23T03:46:44;99617.31;;;12.44;100.00
45525;BME280;31437;58.350;13.828;2022-07-23T03:49:09;99612.97;;;12.43;100.00
45525;BME280;31437;58.350;13.828;2022-07-23T03:51:34;99607.94;;;12.40;100.00
45525;BME280;31437;58.350;13.828;2022-07-23T03:54:00;99608.06;;;12.39;100.00
45525;BME280;31437;58.350;13.828;2022-07-23T03:56:25;99607.31;;;12.37;100.00
45525;BME280;31437;58.350;13.828;2022-07-23T03:58:51;99612.59;;;12.37;100.00
45525;BME280;31437;58.350;13.828;2022-07-23T04:01:16;99605.66;;;12.36;100.00
45525;BME280;31437;58.350;13.828;2022-07-23T04:03:41;99613.63;;;12.34;100.00
45525;BME280;31437;58.350;13.828;2022-07-23T04:06:07;99605.00;;;12.32;100.00
45525;BME280;31437;58.350;13.828;2022-07-23T04:08:32;99605.00;;;12.32;100.00
45525;BME280;31437;58.350;13.828;2022-07-23T04:10:57;99601.53;;;12.32;100.00
45525;BME280;31437;58.350;13.828;2022-07-23T04:13:22;99605.00;;;12.32;100.00
45525;BME280;31437;58.350;13.828;2022-07-23T04:15:48;99605.88;;;12.33;100.00
45525;BME280;31437;58.350;13.828;2022-07-23T04:18:13;99605.00;;;12.32;100.00
45525;BME280;31437;58.350;13.828;2022-07-23T04:20:39;99606.50;;;12.36;100.00
45525;BME280;31437;58.350;13.828;2022-07-23T04:23:04;99605.44;;;12.39;100.00
45525;BME280;31437;58.350;13.828;2022-07-23T04:25:29;99604.38;;;12.41;100.00
45525;BME280;31437;58.350;13.828;2022-07-23T04:27:55;99609.31;;;12.46;100.00
45525;BME280;31437;58.350;13.828;2022-07-23T04:30:20;99604.78;;;12.48;100.00
45525;BME280;31437;58.350;13.828;2022-07-23T04:32:45;99603.81;;;12.49;100.00
45525;BME280;31437;58.350;13.828;2022-07-23T04:35:10;99609.91;;;12.49;100.00
45525;BME280;31437;58.350;13.828;2022-07-23T04:37:36;99615.19;;;12.49;100.00
45525;BME280;31437;58.350;13.828;2022-07-23T04:40:01;99618.78;;;12.48;100.00
45525;BME280;31437;58.350;13.828;2022-07-23T04:42:26;99625.00;;;12.47;100.00
45525;BME280;31437;58.350;13.828;2022-07-23T04:44:52;99626.66;;;12.48;100.00
45525;BME280;31437;58.350;13.828;2022-07-23T04:47:17;99619.72;;;12.47;100.00
45525;BME280;31437;58.350;13.828;2022-07-23T04:49:42;99623.06;;;12.49;100.00
45525;BME280;31437;58.350;13.828;2022-07-23T04:52:08;99622.97;;;12.51;100.00
45525;BME280;31437;58.350;13.828;2022-07-23T04:54:33;99626.44;;;12.52;100.00
45525;BME280;31437;58.350;13.828;2022-07-23T04:56:58;99619.16;;;12.55;100.00
45525;BME280;31437;58.350;13.828;2022-07-23T04:59:23;99625.03;;;12.59;100.00
45525;BME280;31437;58.350;13.828;2022-07-23T05:01:49;99623.06;;;12.62;100.00
45525;BME280;31437;58.350;13.828;2022-07-23T05:04:14;99628.72;;;12.69;100.00
45525;BME280;31437;58.350;13.828;2022-07-23T05:06:39;99620.59;;;12.72;100.00
45525;BME280;31437;58.350;13.828;2022-07-23T05:09:04;99626.38;;;12.77;100.00
45525;BME280;31437;58.350;13.828;2022-07-23T05:11:30;99623.53;;;12.80;100.00
45525;BME280;31437;58.350;13.828;2022-07-23T05:13:55;99620.75;;;12.82;100.00
45525;BME280;31437;58.350;13.828;2022-07-23T05:16:20;99618.78;;;12.85;100.00
45525;BME280;31437;58.350;13.828;2022-07-23T05:18:46;99618.56;;;12.88;100.00
45525;BME280;31437;58.350;13.828;2022-07-23T05:21:11;99621.19;;;12.88;100.00
45525;BME280;31437;58.350;13.828;2022-07-23T05:23:36;99609.47;;;12.92;100.00
45525;BME280;31437;58.350;13.828;2022-07-23T05:26:01;99615.47;;;12.94;100.00
45525;BME280;31437;58.350;13.828;2022-07-23T05:28:27;99610.31;;;12.93;100.00
45525;BME280;31437;58.350;13.828;2022-07-23T05:30:52;99613.78;;;12.93;100.00
45525;BME280;31437;58.350;13.828;2022-07-23T05:33:18;99616.91;;;12.99;100.00
45525;BME280;31437;58.350;13.828;2022-07-23T05:35:44;99615.63;;;13.04;100.00
45525;BME280;31437;58.350;13.828;2022-07-23T05:38:09;99611.19;;;13.05;100.00
45525;BME280;31437;58.350;13.828;2022-07-23T05:40:34;99613.59;;;13.08;100.00
45525;BME280;31437;58.350;13.828;2022-07-23T05:42:59;99618.41;;;13.14;100.00
45525;BME280;31437;58.350;13.828;2022-07-23T05:45:25;99622.63;;;13.16;100.00
45525;BME280;31437;58.350;13.828;2022-07-23T05:47:50;99622.28;;;13.21;100.00
45525;BME280;31437;58.350;13.828;2022-07-23T05:50:16;99613.22;;;13.25;100.00
45525;BME280;31437;58.350;13.828;2022-07-23T05:52:41;99612.47;;;13.23;100.00
45525;BME280;31437;58.350;13.828;2022-07-23T05:55:07;99611.44;;;13.26;100.00
45525;BME280;31437;58.350;13.828;2022-07-23T05:57:33;99601.84;;;13.25;100.00
45525;BME280;31437;58.350;13.828;2022-07-23T05:59:58;99615.09;;;13.23;100.00
45525;BME280;31437;58.350;13.828;2022-07-23T06:02:23;99618.28;;;13.28;100.00
45525;BME280;31437;58.350;13.828;2022-07-23T06:04:49;99616.47;;;13.29;100.00
45525;BME280;31437;58.350;13.828;2022-07-23T06:07:14;99619.59;;;13.34;100.00
45525;BME280;31437;58.350;13.828;2022-07-23T06:09:39;99613.28;;;13.36;100.00
45525;BME280;31437;58.350;13.828;2022-07-23T06:12:05;99623.59;;;13.39;100.00
45525;BME280;31437;58.350;13.828;2022-07-23T06:14:30;99627.66;;;13.44;100.00
45525;BME280;31437;58.350;13.828;2022-07-23T06:16:55;99621.00;;;13.51;100.00
45525;BME280;31437;58.350;13.828;2022-07-23T06:19:20;99620.19;;;13.73;100.00
45525;BME280;31437;58.350;13.828;2022-07-23T06:21:46;99617.69;;;13.94;100.00
45525;BME280;31437;58.350;13.828;2022-07-23T06:24:12;99626.22;;;14.20;100.00
45525;BME280;31437;58.350;13.828;2022-07-23T06:26:38;99627.31;;;14.40;100.00
45525;BME280;31437;58.350;13.828;2022-07-23T06:29:03;99631.50;;;14.42;100.00
45525;BME280;31437;58.350;13.828;2022-07-23T06:31:28;99635.00;;;14.43;100.00
45525;BME280;31437;58.350;13.828;2022-07-23T06:33:54;99624.19;;;14.46;100.00
45525;BME280;31437;58.350;13.828;2022-07-23T06:36:19;99630.47;;;14.56;100.00
45525;BME280;31437;58.350;13.828;2022-07-23T06:38:44;99634.03;;;14.66;100.00
45525;BME280;31437;58.350;13.828;2022-07-23T06:41:10;99638.09;;;14.70;100.00
45525;BME280;31437;58.350;13.828;2022-07-23T06:43:35;99631.53;;;14.65;100.00
45525;BME280;31437;58.350;13.828;2022-07-23T06:46:00;99637.28;;;14.59;100.00
45525;BME280;31437;58.350;13.828;2022-07-23T06:48:25;99633.06;;;14.45;100.00
45525;BME280;31437;58.350;13.828;2022-07-23T06:50:51;99632.69;;;14.38;100.00
45525;BME280;31437;58.350;13.828;2022-07-23T06:53:17;99629.38;;;14.36;100.00
45525;BME280;31437;58.350;13.828;2022-07-23T06:55:42;99637.88;;;14.28;100.00
45525;BME280;31437;58.350;13.828;2022-07-23T06:58:08;99632.25;;;14.22;100.00
45525;BME280;31437;58.350;13.828;2022-07-23T07:00:35;99633.91;;;14.12;100.00
45525;BME280;31437;58.350;13.828;2022-07-23T07:03:00;99629.59;;;14.11;100.00
45525;BME280;31437;58.350;13.828;2022-07-23T07:05:26;99636.69;;;14.21;100.00
45525;BME280;31437;58.350;13.828;2022-07-23T07:07:53;99630.31;;;14.35;100.00
45525;BME280;31437;58.350;13.828;2022-07-23T07:10:18;99635.56;;;14.46;100.00
45525;BME280;31437;58.350;13.828;2022-07-23T07:12:44;99636.81;;;14.65;100.00
45525;BME280;31437;58.350;13.828;2022-07-23T07:15:09;99637.50;;;14.78;100.00
45525;BME280;31437;58.350;13.828;2022-07-23T07:17:35;99644.34;;;14.81;100.00
45525;BME280;31437;58.350;13.828;2022-07-23T07:20:00;99640.13;;;14.89;100.00
45525;BME280;31437;58.350;13.828;2022-07-23T07:22:25;99648.25;;;14.97;100.00
45525;BME280;31437;58.350;13.828;2022-07-23T07:24:50;99643.09;;;14.96;100.00
45525;BME280;31437;58.350;13.828;2022-07-23T07:27:16;99642.00;;;14.98;100.00
45525;BME280;31437;58.350;13.828;2022-07-23T07:29:41;99633.25;;;14.98;100.00
45525;BME280;31437;58.350;13.828;2022-07-23T07:32:06;99634.41;;;15.05;100.00
45525;BME280;31437;58.350;13.828;2022-07-23T07:34:32;99627.28;;;15.17;100.00
45525;BME280;31437;58.350;13.828;2022-07-23T07:36:57;99626.69;;;15.25;100.00
45525;BME280;31437;58.350;13.828;2022-07-23T07:39:23;99632.78;;;15.25;100.00
45525;BME280;31437;58.350;13.828;2022-07-23T07:41:49;99635.00;;;15.41;100.00
45525;BME280;31437;58.350;13.828;2022-07-23T07:44:14;99637.38;;;15.44;100.00
45525;BME280;31437;58.350;13.828;2022-07-23T07:46:39;99629.44;;;15.44;100.00
45525;BME280;31437;58.350;13.828;2022-07-23T07:49:05;99625.34;;;15.30;100.00
45525;BME280;31437;58.350;13.828;2022-07-23T07:51:30;99626.16;;;15.31;100.00
45525;BME280;31437;58.350;13.828;2022-07-23T07:53:56;99622.69;;;15.30;100.00
45525;BME280;31437;58.350;13.828;2022-07-23T07:56:21;99627.19;;;15.18;100.00
45525;BME280;31437;58.350;13.828;2022-07-23T07:58:46;99622.84;;;15.17;100.00
45525;BME280;31437;58.350;13.828;2022-07-23T08:01:12;99622.72;;;15.19;100.00
45525;BME280;31437;58.350;13.828;2022-07-23T08:03:37;99614.81;;;15.19;100.00
45525;BME280;31437;58.350;13.828;2022-07-23T08:06:02;99616.63;;;15.18;100.00
45525;BME280;31437;58.350;13.828;2022-07-23T08:08:27;99614.22;;;15.15;100.00
45525;BME280;31437;58.350;13.828;2022-07-23T08:10:53;99610.53;;;15.07;100.00
45525;BME280;31437;58.350;13.828;2022-07-23T08:13:18;99612.63;;;14.92;100.00
45525;BME280;31437;58.350;13.828;2022-07-23T08:15:44;99613.63;;;14.80;100.00
45525;BME280;31437;58.350;13.828;2022-07-23T08:18:09;99606.53;;;14.80;100.00
45525;BME280;31437;58.350;13.828;2022-07-23T08:20:34;99612.50;;;14.82;100.00
45525;BME280;31437;58.350;13.828;2022-07-23T08:23:03;99612.97;;;14.87;100.00
45525;BME280;31437;58.350;13.828;2022-07-23T08:25:30;99616.97;;;14.82;100.00
45525;BME280;31437;58.350;13.828;2022-07-23T08:27:56;99623.94;;;14.83;100.00
45525;BME280;31437;58.350;13.828;2022-07-23T08:30:21;99624.28;;;14.78;100.00
45525;BME280;31437;58.350;13.828;2022-07-23T08:32:51;99621.06;;;14.86;100.00
45525;BME280;31437;58.350;13.828;2022-07-23T08:35:17;99611.91;;;14.90;100.00
45525;BME280;31437;58.350;13.828;2022-07-23T08:37:42;99610.91;;;15.02;100.00
45525;BME280;31437;58.350;13.828;2022-07-23T08:40:08;99614.84;;;15.08;100.00
45525;BME280;31437;58.350;13.828;2022-07-23T08:42:33;99623.09;;;15.14;100.00
45525;BME280;31437;58.350;13.828;2022-07-23T08:45:03;99623.81;;;15.16;100.00
45525;BME280;31437;58.350;13.828;2022-07-23T08:47:29;99614.66;;;15.20;100.00
45525;BME280;31437;58.350;13.828;2022-07-23T08:49:55;99619.66;;;15.35;100.00
45525;BME280;31437;58.350;13.828;2022-07-23T08:52:21;99622.81;;;15.50;100.00
45525;BME280;31437;58.350;13.828;2022-07-23T08:54:46;99618.97;;;15.54;100.00
45525;BME280;31437;58.350;13.828;2022-07-23T08:57:12;99622.66;;;15.62;100.00
45525;BME280;31437;58.350;13.828;2022-07-23T08:59:37;99619.59;;;15.67;100.00
45525;BME280;31437;58.350;13.828;2022-07-23T09:02:03;99625.28;;;15.62;100.00
45525;BME280;31437;58.350;13.828;2022-07-23T09:04:29;99622.06;;;15.59;100.00
45525;BME280;31437;58.350;13.828;2022-07-23T09:06:55;99622.19;;;15.57;100.00
45525;BME280;31437;58.350;13.828;2022-07-23T09:09:21;99622.31;;;15.56;100.00
45525;BME280;31437;58.350;13.828;2022-07-23T09:11:47;99623.16;;;15.56;100.00
45525;BME280;31437;58.350;13.828;2022-07-23T09:14:13;99622.44;;;15.54;100.00
45525;BME280;31437;58.350;13.828;2022-07-23T09:16:38;99619.09;;;15.52;100.00
45525;BME280;31437;58.350;13.828;2022-07-23T09:19:04;99625.34;;;15.51;100.00
45525;BME280;31437;58.350;13.828;2022-07-23T09:24:13;99620.69;;;15.43;100.00
45525;BME280;31437;58.350;13.828;2022-07-23T09:26:41;99627.66;;;15.44;100.00
45525;BME280;31437;58.350;13.828;2022-07-23T09:34:15;99623.84;;;15.70;100.00
45525;BME280;31437;58.350;13.828;2022-07-23T09:36:41;99626.53;;;15.79;100.00
45525;BME280;31437;58.350;13.828;2022-07-23T09:39:07;99626.78;;;15.76;100.00
45525;BME280;31437;58.350;13.828;2022-07-23T09:41:33;99628.47;;;15.77;100.00
45525;BME280;31437;58.350;13.828;2022-07-23T09:43:59;99625.38;;;15.72;100.00
45525;BME280;31437;58.350;13.828;2022-07-23T09:46:31;99626.47;;;15.70;100.00
45525;BME280;31437;58.350;13.828;2022-07-23T09:48:56;99621.09;;;15.60;100.00
45525;BME280;31437;58.350;13.828;2022-07-23T09:51:22;99613.69;;;15.54;100.00
45525;BME280;31437;58.350;13.828;2022-07-23T09:54:02;99612.31;;;15.38;100.00
45525;BME280;31437;58.350;13.828;2022-07-23T09:56:29;99614.25;;;15.36;100.00
45525;BME280;31437;58.350;13.828;2022-07-23T09:58:54;99621.94;;;15.39;100.00
45525;BME280;31437;58.350;13.828;2022-07-23T10:01:31;99617.94;;;15.45;100.00
45525;BME280;31437;58.350;13.828;2022-07-23T10:03:57;99615.28;;;15.45;100.00
45525;BME280;31437;58.350;13.828;2022-07-23T10:06:23;99610.31;;;15.52;100.00
45525;BME280;31437;58.350;13.828;2022-07-23T10:08:48;99617.41;;;15.51;100.00
45525;BME280;31437;58.350;13.828;2022-07-23T10:11:16;99615.03;;;15.48;100.00
45525;BME280;31437;58.350;13.828;2022-07-23T10:13:44;99611.81;;;15.44;100.00
45525;BME280;31437;58.350;13.828;2022-07-23T10:16:24;99607.22;;;15.47;100.00
45525;BME280;31437;58.350;13.828;2022-07-23T10:18:50;99614.78;;;15.51;100.00
45525;BME280;31437;58.350;13.828;2022-07-23T10:21:21;99616.31;;;15.54;100.00
45525;BME280;31437;58.350;13.828;2022-07-23T10:24:01;99616.06;;;15.57;100.00
45525;BME280;31437;58.350;13.828;2022-07-23T10:29:02;99623.09;;;15.67;100.00
45525;BME280;31437;58.350;13.828;2022-07-23T10:34:50;99621.03;;;15.50;100.00
45525;BME280;31437;58.350;13.828;2022-07-23T10:37:14;99622.38;;;15.44;100.00
45525;BME280;31437;58.350;13.828;2022-07-23T10:39:43;99622.03;;;15.38;100.00
45525;BME280;31437;58.350;13.828;2022-07-23T10:42:13;99621.47;;;15.34;100.00
45525;BME280;31437;58.350;13.828;2022-07-23T10:44:43;99618.81;;;15.34;100.00
45525;BME280;31437;58.350;13.828;2022-07-23T10:47:09;99625.19;;;15.32;100.00
45525;BME280;31437;58.350;13.828;2022-07-23T10:49:49;99626.88;;;15.33;100.00
45525;BME280;31437;58.350;13.828;2022-07-23T10:54:46;99615.81;;;15.39;100.00
45525;BME280;31437;58.350;13.828;2022-07-23T10:57:14;99617.34;;;15.41;100.00
45525;BME280;31437;58.350;13.828;2022-07-23T11:02:23;99618.06;;;15.43;100.00
45525;BME280;31437;58.350;13.828;2022-07-23T11:04:49;99618.19;;;15.42;100.00
45525;BME280;31437;58.350;13.828;2022-07-23T11:07:15;99618.75;;;15.45;100.00
45525;BME280;31437;58.350;13.828;2022-07-23T11:09:41;99628.31;;;15.58;100.00
45525;BME280;31437;58.350;13.828;2022-07-23T11:14:57;99618.47;;;15.81;100.00
45525;BME280;31437;58.350;13.828;2022-07-23T11:17:23;99621.25;;;16.00;100.00
45525;BME280;31437;58.350;13.828;2022-07-23T11:25:00;99618.94;;;16.17;100.00
45525;BME280;31437;58.350;13.828;2022-07-23T11:27:42;99622.75;;;16.24;100.00
45525;BME280;31437;58.350;13.828;2022-07-23T11:30:08;99614.94;;;16.32;100.00
45525;BME280;31437;58.350;13.828;2022-07-23T11:32:34;99616.19;;;16.28;100.00
45525;BME280;31437;58.350;13.828;2022-07-23T11:35:02;99617.44;;;16.24;100.00
45525;BME280;31437;58.350;13.828;2022-07-23T11:37:32;99614.91;;;16.22;100.00
45525;BME280;31437;58.350;13.828;2022-07-23T11:39:59;99610.28;;;16.15;100.00
45525;BME280;31437;58.350;13.828;2022-07-23T11:42:24;99617.34;;;16.04;100.00
45525;BME280;31437;58.350;13.828;2022-07-23T11:44:50;99612.13;;;15.93;100.00
45525;BME280;31437;58.350;13.828;2022-07-23T11:47:20;99604.47;;;15.90;100.00
45525;BME280;31437;58.350;13.828;2022-07-23T11:49:53;99603.75;;;15.88;100.00
45525;BME280;31437;58.350;13.828;2022-07-23T11:52:18;99607.25;;;15.88;100.00
45525;BME280;31437;58.350;13.828;2022-07-23T11:54:58;99610.69;;;16.10;100.00
45525;BME280;31437;58.350;13.828;2022-07-23T11:57:24;99610.53;;;16.32;100.00
45525;BME280;31437;58.350;13.828;2022-07-23T11:59:52;99614.31;;;16.49;100.00
45525;BME280;31437;58.350;13.828;2022-07-23T12:02:19;99610.19;;;16.56;100.00
45525;BME280;31437;58.350;13.828;2022-07-23T12:04:45;99612.16;;;16.74;100.00
45525;BME280;31437;58.350;13.828;2022-07-23T12:07:24;99605.66;;;16.88;100.00
45525;BME280;31437;58.350;13.828;2022-07-23T12:09:49;99609.44;;;17.05;100.00
45525;BME280;31437;58.350;13.828;2022-07-23T12:12:15;99605.69;;;17.07;100.00
45525;BME280;31437;58.350;13.828;2022-07-23T12:17:14;99609.44;;;16.95;100.00
45525;BME280;31437;58.350;13.828;2022-07-23T12:19:40;99597.97;;;16.85;100.00
45525;BME280;31437;58.350;13.828;2022-07-23T12:22:05;99603.72;;;16.80;100.00
45525;BME280;31437;58.350;13.828;2022-07-23T12:24:30;99609.09;;;16.69;100.00
45525;BME280;31437;58.350;13.828;2022-07-23T12:27:11;99618.19;;;16.76;100.00
45525;BME280;31437;58.350;13.828;2022-07-23T12:29:38;99608.44;;;17.06;100.00
45525;BME280;31437;58.350;13.828;2022-07-23T12:32:16;99618.09;;;17.26;100.00
45525;BME280;31437;58.350;13.828;2022-07-23T12:34:42;99609.88;;;17.39;100.00
45525;BME280;31437;58.350;13.828;2022-07-23T12:37:07;99607.63;;;17.54;100.00
45525;BME280;31437;58.350;13.828;2022-07-23T12:39:32;99610.94;;;17.75;100.00
45525;BME280;31437;58.350;13.828;2022-07-23T12:41:57;99613.69;;;17.93;100.00
45525;BME280;31437;58.350;13.828;2022-07-23T12:44:23;99610.59;;;18.07;100.00
45525;BME280;31437;58.350;13.828;2022-07-23T12:46:52;99607.41;;;18.04;100.00
45525;BME280;31437;58.350;13.828;2022-07-23T12:49:26;99610.47;;;17.99;100.00
45525;BME280;31437;58.350;13.828;2022-07-23T12:51:52;99606.31;;;17.87;100.00
45525;BME280;31437;58.350;13.828;2022-07-23T12:54:17;99589.31;;;17.60;100.00
45525;BME280;31437;58.350;13.828;2022-07-23T12:56:46;99590.19;;;17.51;100.00
45525;BME280;31437;58.350;13.828;2022-07-23T12:59:13;99590.91;;;17.34;100.00
45525;BME280;31437;58.350;13.828;2022-07-23T13:01:41;99590.19;;;17.22;100.00
45525;BME280;31437;58.350;13.828;2022-07-23T13:09:20;99607.47;;;16.87;100.00